createdAt,value
2023-06-05T00:00:12.232Z,2.07
2023-06-05T00:01:12.243Z,2.02
2023-06-05T00:02:12.326Z,2.04
2023-06-05T00:03:12.257Z,2.05
2023-06-05T00:04:12.376Z,2.03
2023-06-05T00:05:12.207Z,2.02
2023-06-05T00:06:12.211Z,2.00
2023-06-05T00:07:12.179Z,2.00
2023-06-05T00:08:12.185Z,1.98
2023-06-05T00:09:12.175Z,2.03
2023-06-05T00:10:12.151Z,1.99
2023-06-05T00:11:12.182Z,2.01
2023-06-05T00:12:12.156Z,2.00
2023-06-05T00:13:12.140Z,1.98
2023-06-05T00:14:12.148Z,1.97
2023-06-05T00:15:12.131Z,1.94
2023-06-05T00:16:12.184Z,1.98
2023-06-05T00:17:12.103Z,1.95
2023-06-05T00:18:12.197Z,1.94
2023-06-05T00:19:12.291Z,1.95
2023-06-05T00:20:12.089Z,1.98
2023-06-05T00:21:12.132Z,2.04
2023-06-05T00:22:12.085Z,2.06
2023-06-05T00:23:12.079Z,2.10
2023-06-05T00:24:12.072Z,2.10
2023-06-05T00:25:12.134Z,2.13
2023-06-05T00:26:12.069Z,2.10
2023-06-05T00:27:12.046Z,2.08
2023-06-05T00:28:12.049Z,2.08
2023-06-05T00:29:12.062Z,2.07
2023-06-05T00:30:12.024Z,2.07
2023-06-05T00:31:12.123Z,2.05
2023-06-05T00:32:12.003Z,2.05
2023-06-05T00:33:12.031Z,2.02
2023-06-05T00:34:12.004Z,2.00
2023-06-05T00:35:11.989Z,1.98
2023-06-05T00:36:11.989Z,1.97
2023-06-05T00:37:11.972Z,1.96
2023-06-05T00:38:11.958Z,1.94
2023-06-05T00:39:11.967Z,1.95
2023-06-05T00:40:11.954Z,1.96
2023-06-05T00:41:11.979Z,2.04
2023-06-05T00:42:11.956Z,2.02
2023-06-05T00:43:11.946Z,2.01
2023-06-05T00:44:11.921Z,1.98
2023-06-05T00:45:11.935Z,1.94
2023-06-05T00:46:12.009Z,1.90
2023-06-05T00:47:11.919Z,1.92
2023-06-05T00:48:11.952Z,1.91
2023-06-05T00:49:11.910Z,1.94
2023-06-05T00:50:11.890Z,1.96
2023-06-05T00:51:11.928Z,1.95
2023-06-05T00:52:11.869Z,1.95
2023-06-05T00:53:11.872Z,1.94
2023-06-05T00:54:11.941Z,1.91
2023-06-05T00:55:11.858Z,1.91
2023-06-05T00:56:11.842Z,1.90
2023-06-05T00:57:11.857Z,1.86
2023-06-05T00:58:11.844Z,1.86
2023-06-05T00:59:11.845Z,1.87
2023-06-05T01:00:11.822Z,1.82
2023-06-05T01:01:11.959Z,1.81
2023-06-05T01:02:11.861Z,1.80
2023-06-05T01:03:11.958Z,1.80
2023-06-05T01:04:11.802Z,1.78
2023-06-05T01:05:11.798Z,1.74
2023-06-05T01:06:11.803Z,1.75
2023-06-05T01:07:11.804Z,1.73
2023-06-05T01:08:11.777Z,1.73
2023-06-05T01:09:11.800Z,1.76
2023-06-05T01:10:11.789Z,1.78
2023-06-05T01:11:11.764Z,1.83
2023-06-05T01:12:11.754Z,1.89
2023-06-05T01:13:11.753Z,1.90
2023-06-05T01:14:11.739Z,1.93
2023-06-05T01:15:11.746Z,1.93
2023-06-05T01:16:11.758Z,1.91
2023-06-05T01:17:11.839Z,1.87
2023-06-05T01:18:11.721Z,1.87
2023-06-05T01:19:11.700Z,1.87
2023-06-05T01:20:11.693Z,1.90
2023-06-05T01:21:11.690Z,1.92
2023-06-05T01:22:11.689Z,1.92
2023-06-05T01:23:11.674Z,1.91
2023-06-05T01:24:11.670Z,1.91
2023-06-05T01:25:11.660Z,1.90
2023-06-05T01:26:11.661Z,1.89
2023-06-05T01:27:11.665Z,1.85
2023-06-05T01:28:11.647Z,1.89
2023-06-05T01:29:11.653Z,1.89
2023-06-05T01:30:11.631Z,1.93
2023-06-05T01:31:11.792Z,1.94
2023-06-05T01:32:11.615Z,1.91
2023-06-05T01:33:11.666Z,1.90
2023-06-05T01:34:11.598Z,1.94
2023-06-05T01:35:11.610Z,1.93
2023-06-05T01:36:11.581Z,1.93
2023-06-05T01:37:11.588Z,1.95
2023-06-05T01:38:11.575Z,1.92
2023-06-05T01:39:11.566Z,1.91
2023-06-05T01:40:11.571Z,1.89
2023-06-05T01:41:11.586Z,1.91
2023-06-05T01:42:11.556Z,1.90
2023-06-05T01:43:11.548Z,1.91
2023-06-05T01:44:11.529Z,1.92
2023-06-05T01:45:11.534Z,1.94
2023-06-05T01:46:11.523Z,1.94
2023-06-05T01:47:11.521Z,1.95
2023-06-05T01:48:11.524Z,2.00
2023-06-05T01:49:11.510Z,1.98
2023-06-05T01:50:11.486Z,1.98
2023-06-05T01:51:11.488Z,1.94
2023-06-05T01:52:11.485Z,1.94
2023-06-05T01:53:11.479Z,1.94
2023-06-05T01:54:11.478Z,1.93
2023-06-05T01:55:11.461Z,1.94
2023-06-05T01:56:11.460Z,1.93
2023-06-05T01:57:11.453Z,1.94
2023-06-05T01:58:11.441Z,1.94
2023-06-05T01:59:11.420Z,1.93
2023-06-05T02:00:11.437Z,1.91
2023-06-05T02:01:11.424Z,1.93
2023-06-05T02:02:11.443Z,1.89
2023-06-05T02:03:11.533Z,1.91
2023-06-05T02:04:11.487Z,1.90
2023-06-05T02:05:11.407Z,1.89
2023-06-05T02:06:11.390Z,1.90
2023-06-05T02:07:11.374Z,1.89
2023-06-05T02:08:11.373Z,1.87
2023-06-05T02:09:11.376Z,1.86
2023-06-05T02:10:11.374Z,1.86
2023-06-05T02:11:11.455Z,1.88
2023-06-05T02:12:11.390Z,1.86
2023-06-05T02:13:11.340Z,1.87
2023-06-05T02:14:11.319Z,1.86
2023-06-05T02:15:11.323Z,1.84
2023-06-05T02:16:11.327Z,1.82
2023-06-05T02:17:11.299Z,1.81
2023-06-05T02:18:11.297Z,1.84
2023-06-05T02:19:11.299Z,1.83
2023-06-05T02:20:11.292Z,1.81
2023-06-05T02:21:11.360Z,1.82
2023-06-05T02:22:11.265Z,1.82
2023-06-05T02:23:11.250Z,1.83
2023-06-05T02:24:11.300Z,1.83
2023-06-05T02:25:11.252Z,1.82
2023-06-05T02:26:11.251Z,1.82
2023-06-05T02:27:11.248Z,1.81
2023-06-05T02:28:11.231Z,1.83
2023-06-05T02:29:11.222Z,1.82
2023-06-05T02:30:11.214Z,1.85
2023-06-05T02:31:11.515Z,1.83
2023-06-05T02:32:11.211Z,1.85
2023-06-05T02:33:11.179Z,1.84
2023-06-05T02:34:11.203Z,1.84
2023-06-05T02:35:11.168Z,1.84
2023-06-05T02:36:11.171Z,1.84
2023-06-05T02:37:11.175Z,1.82
2023-06-05T02:38:11.151Z,1.82
2023-06-05T02:39:11.143Z,1.80
2023-06-05T02:40:11.137Z,1.81
2023-06-05T02:41:11.212Z,1.81
2023-06-05T02:42:11.129Z,1.81
2023-06-05T02:43:11.114Z,1.81
2023-06-05T02:44:11.108Z,1.81
2023-06-05T02:45:11.119Z,1.80
2023-06-05T02:46:11.203Z,1.80
2023-06-05T02:47:11.144Z,1.75
2023-06-05T02:48:11.085Z,1.76
2023-06-05T02:49:11.096Z,1.76
2023-06-05T02:50:11.072Z,1.80
2023-06-05T02:51:11.055Z,1.78
2023-06-05T02:52:11.057Z,1.77
2023-06-05T02:53:11.044Z,1.78
2023-06-05T02:54:11.667Z,1.74
2023-06-05T02:55:11.041Z,1.75
2023-06-05T02:56:11.035Z,1.76
2023-06-05T02:57:11.045Z,1.79
2023-06-05T02:58:11.001Z,1.81
2023-06-05T02:59:10.995Z,1.79
2023-06-05T03:00:11.009Z,1.75
2023-06-05T03:01:11.178Z,1.72
2023-06-05T03:02:10.996Z,1.73
2023-06-05T03:03:11.046Z,1.72
2023-06-05T03:04:10.979Z,1.71
2023-06-05T03:05:10.963Z,1.74
2023-06-05T03:06:10.955Z,1.77
2023-06-05T03:07:10.953Z,1.78
2023-06-05T03:08:10.965Z,1.77
2023-06-05T03:09:10.949Z,1.74
2023-06-05T03:10:10.921Z,1.75
2023-06-05T03:11:11.266Z,1.73
2023-06-05T03:12:10.937Z,1.73
2023-06-05T03:13:10.914Z,1.78
2023-06-05T03:14:10.955Z,1.78
2023-06-05T03:15:10.925Z,1.75
2023-06-05T03:16:10.990Z,1.75
2023-06-05T03:17:10.947Z,1.79
2023-06-05T03:18:10.996Z,1.82
2023-06-05T03:19:10.940Z,1.85
2023-06-05T03:20:11.022Z,1.84
2023-06-05T03:21:11.017Z,1.85
2023-06-05T03:22:10.975Z,1.84
2023-06-05T03:23:10.987Z,1.84
2023-06-05T03:24:10.996Z,1.83
2023-06-05T03:25:11.004Z,1.83
2023-06-05T03:26:11.023Z,1.84
2023-06-05T03:27:11.000Z,1.87
2023-06-05T03:28:11.011Z,1.88
2023-06-05T03:29:11.029Z,1.91
2023-06-05T03:30:11.033Z,1.92
2023-06-05T03:31:11.037Z,1.97
2023-06-05T03:32:11.050Z,2.00
2023-06-05T03:33:11.162Z,2.02
2023-06-05T03:34:11.088Z,2.02
2023-06-05T03:35:11.053Z,2.01
2023-06-05T03:36:11.066Z,2.02
2023-06-05T03:37:11.072Z,2.01
2023-06-05T03:38:11.097Z,2.02
2023-06-05T03:39:11.118Z,2.01
2023-06-05T03:40:11.201Z,2.04
2023-06-05T03:41:11.311Z,2.02
2023-06-05T03:42:11.135Z,2.04
2023-06-05T03:43:11.162Z,2.05
2023-06-05T03:44:11.154Z,2.01
2023-06-05T03:45:11.161Z,2.04
2023-06-05T03:46:11.211Z,2.05
2023-06-05T03:47:11.204Z,2.06
2023-06-05T03:48:11.201Z,2.06
2023-06-05T03:49:11.225Z,2.07
2023-06-05T03:50:11.239Z,2.07
2023-06-05T03:51:11.345Z,2.09
2023-06-05T03:52:11.251Z,2.07
2023-06-05T03:53:11.265Z,2.07
2023-06-05T03:54:11.301Z,2.06
2023-06-05T03:55:11.280Z,2.08
2023-06-05T03:56:11.304Z,2.09
2023-06-05T03:57:11.303Z,2.11
2023-06-05T03:58:11.309Z,2.13
2023-06-05T03:59:11.322Z,2.10
2023-06-05T04:00:11.428Z,2.11
2023-06-05T04:01:11.529Z,2.11
2023-06-05T04:02:11.461Z,2.13
2023-06-05T04:03:11.457Z,2.13
2023-06-05T04:04:11.425Z,2.13
2023-06-05T04:05:11.397Z,2.14
2023-06-05T04:06:11.428Z,2.10
2023-06-05T04:07:11.453Z,2.09
2023-06-05T04:08:11.451Z,2.10
2023-06-05T04:09:11.462Z,2.09
2023-06-05T04:10:11.486Z,2.10
2023-06-05T04:11:11.490Z,2.10
2023-06-05T04:12:11.523Z,2.10
2023-06-05T04:13:11.531Z,2.10
2023-06-05T04:14:11.527Z,2.09
2023-06-05T04:15:11.621Z,2.07
2023-06-05T04:16:11.596Z,2.08
2023-06-05T04:17:11.645Z,2.08
2023-06-05T04:18:11.612Z,2.09
2023-06-05T04:19:11.597Z,2.07
2023-06-05T04:20:11.642Z,2.07
2023-06-05T04:21:11.621Z,2.05
2023-06-05T04:22:11.650Z,2.07
2023-06-05T04:23:11.660Z,2.07
2023-06-05T04:24:11.774Z,2.06
2023-06-05T04:25:11.706Z,2.06
2023-06-05T04:26:11.716Z,2.07
2023-06-05T04:27:11.740Z,2.06
2023-06-05T04:28:11.763Z,2.09
2023-06-05T04:29:11.763Z,2.08
2023-06-05T04:30:11.785Z,2.07
2023-06-05T04:31:11.998Z,2.10
2023-06-05T04:32:11.820Z,2.09
2023-06-05T04:33:11.834Z,2.12
2023-06-05T04:34:11.847Z,2.13
2023-06-05T04:35:11.857Z,2.15
2023-06-05T04:36:11.862Z,2.18
2023-06-05T04:37:11.897Z,2.22
2023-06-05T04:38:11.910Z,2.25
2023-06-05T04:39:11.925Z,2.24
2023-06-05T04:40:11.942Z,2.25
2023-06-05T04:41:11.926Z,2.27
2023-06-05T04:42:15.536Z,2.31
2023-06-05T04:43:11.934Z,2.31
2023-06-05T04:44:11.928Z,2.32
2023-06-05T04:45:11.945Z,2.33
2023-06-05T04:46:11.969Z,2.34
2023-06-05T04:47:11.914Z,2.35
2023-06-05T04:48:11.939Z,2.38
2023-06-05T04:49:11.897Z,2.37
2023-06-05T04:50:11.901Z,2.37
2023-06-05T04:51:11.879Z,2.38
2023-06-05T04:52:11.882Z,2.40
2023-06-05T04:53:11.906Z,2.39
2023-06-05T04:54:11.877Z,2.39
2023-06-05T04:55:12.719Z,2.39
2023-06-05T04:56:12.118Z,2.40
2023-06-05T04:57:12.096Z,2.40
2023-06-05T04:58:12.083Z,2.40
2023-06-05T04:59:12.075Z,2.39
2023-06-05T05:00:12.067Z,2.41
2023-06-05T05:01:12.085Z,2.44
2023-06-05T05:02:12.178Z,2.41
2023-06-05T05:03:12.123Z,2.44
2023-06-05T05:04:12.178Z,2.42
2023-06-05T05:05:12.147Z,2.45
2023-06-05T05:06:12.150Z,2.45
2023-06-05T05:07:12.185Z,2.46
2023-06-05T05:08:12.199Z,2.45
2023-06-05T05:09:12.214Z,2.48
2023-06-05T05:10:12.221Z,2.46
2023-06-05T05:11:12.249Z,2.48
2023-06-05T05:12:12.236Z,2.48
2023-06-05T05:13:12.267Z,2.48
2023-06-05T05:14:12.274Z,2.50
2023-06-05T05:15:12.292Z,2.50
2023-06-05T05:16:12.329Z,2.49
2023-06-05T05:17:12.338Z,2.48
2023-06-05T05:18:12.332Z,2.47
2023-06-05T05:19:12.390Z,2.47
2023-06-05T05:20:12.381Z,2.48
2023-06-05T05:21:12.418Z,2.46
2023-06-05T05:22:12.429Z,2.49
2023-06-05T05:23:12.442Z,2.48
2023-06-05T05:24:12.470Z,2.49
2023-06-05T05:25:12.523Z,2.43
2023-06-05T05:26:12.556Z,2.62
2023-06-05T05:27:12.583Z,2.82
2023-06-05T05:28:12.604Z,3.01
2023-06-05T05:29:12.585Z,3.37
2023-06-05T05:30:12.630Z,3.96
2023-06-05T05:31:12.824Z,4.52
2023-06-05T05:32:12.767Z,4.68
2023-06-05T05:33:12.704Z,4.71
2023-06-05T05:34:12.707Z,4.58
2023-06-05T05:35:12.726Z,4.87
2023-06-05T05:36:12.756Z,5.66
2023-06-05T05:37:12.809Z,6.32
2023-06-05T05:38:12.847Z,6.79
2023-06-05T05:39:12.871Z,6.88
2023-06-05T05:40:12.881Z,6.80
2023-06-05T05:41:12.900Z,6.88
2023-06-05T05:42:12.922Z,7.05
2023-06-05T05:43:12.953Z,7.36
2023-06-05T05:44:13.019Z,6.88
2023-06-05T05:45:13.053Z,6.40
2023-06-05T05:46:13.096Z,6.27
2023-06-05T05:47:13.189Z,6.06
2023-06-05T05:48:13.057Z,5.81
2023-06-05T05:49:13.093Z,5.56
2023-06-05T05:50:13.167Z,5.37
2023-06-05T05:51:13.230Z,5.35
2023-06-05T05:52:13.285Z,5.13
2023-06-05T05:53:13.330Z,4.94
2023-06-05T05:54:13.358Z,4.85
2023-06-05T05:55:15.132Z,4.64
2023-06-05T05:56:13.430Z,4.47
2023-06-05T05:57:13.464Z,4.31
2023-06-05T05:58:13.465Z,4.25
2023-06-05T05:59:13.491Z,4.18
2023-06-05T06:00:13.587Z,4.21
2023-06-05T06:01:13.526Z,3.99
2023-06-05T06:02:13.583Z,3.94
2023-06-05T06:03:13.628Z,3.94
2023-06-05T06:04:13.588Z,3.85
2023-06-05T06:05:13.690Z,3.82
2023-06-05T06:06:13.599Z,3.84
2023-06-05T06:07:13.558Z,3.70
2023-06-05T06:08:13.564Z,3.62
2023-06-05T06:09:13.555Z,3.74
2023-06-05T06:10:13.570Z,3.72
2023-06-05T06:11:13.578Z,3.69
2023-06-05T06:12:13.580Z,3.59
2023-06-05T06:13:13.578Z,3.56
2023-06-05T06:14:13.597Z,3.48
2023-06-05T06:15:13.592Z,3.45
2023-06-05T06:16:13.590Z,3.48
2023-06-05T06:17:13.582Z,3.51
2023-06-05T06:18:13.683Z,3.38
2023-06-05T06:19:13.623Z,3.36
2023-06-05T06:20:13.601Z,3.21
2023-06-05T06:21:13.582Z,3.05
2023-06-05T06:22:13.619Z,2.99
2023-06-05T06:23:13.581Z,3.02
2023-06-05T06:24:13.593Z,2.97
2023-06-05T06:25:13.609Z,2.93
2023-06-05T06:26:13.594Z,2.90
2023-06-05T06:28:13.590Z,2.95
2023-06-05T06:29:13.580Z,2.93
2023-06-05T06:30:13.592Z,2.89
2023-06-05T06:31:13.604Z,2.86
2023-06-05T06:32:13.706Z,2.88
2023-06-05T06:33:13.553Z,2.90
2023-06-05T06:34:13.540Z,2.99
2023-06-05T06:35:13.532Z,2.92
2023-06-05T06:36:13.553Z,2.96
2023-06-05T06:37:13.712Z,2.80
2023-06-05T06:38:13.514Z,2.88
2023-06-05T06:39:13.487Z,2.90
2023-06-05T06:40:13.504Z,2.78
2023-06-05T06:41:13.492Z,3.01
2023-06-05T06:42:13.726Z,2.90
2023-06-05T06:43:13.473Z,2.72
2023-06-05T06:44:13.452Z,2.94
2023-06-05T06:45:13.510Z,2.79
2023-06-05T06:46:13.430Z,2.53
2023-06-05T06:47:13.468Z,2.56
2023-06-05T06:48:13.523Z,2.52
2023-06-05T06:49:13.503Z,2.39
2023-06-05T06:50:13.414Z,2.48
2023-06-05T06:51:13.409Z,2.34
2023-06-05T06:52:13.404Z,2.30
2023-06-05T06:53:13.400Z,2.37
2023-06-05T06:54:13.397Z,2.39
2023-06-05T06:55:13.391Z,2.33
2023-06-05T06:56:13.370Z,2.30
2023-06-05T06:57:13.381Z,2.28
2023-06-05T06:58:13.364Z,2.22
2023-06-05T06:59:13.353Z,2.30
2023-06-05T07:00:13.347Z,2.29
2023-06-05T07:01:13.427Z,2.19
2023-06-05T07:02:13.383Z,2.21
2023-06-05T07:03:13.377Z,2.11
2023-06-05T07:04:13.326Z,2.01
2023-06-05T07:05:13.314Z,2.09
2023-06-05T07:06:13.309Z,2.07
2023-06-05T07:07:13.317Z,2.11
2023-06-05T07:08:13.326Z,2.10
2023-06-05T07:09:13.295Z,2.03
2023-06-05T07:10:13.295Z,2.04
2023-06-05T07:11:13.270Z,2.02
2023-06-05T07:12:13.270Z,2.01
2023-06-05T07:13:13.277Z,2.08
2023-06-05T07:14:13.276Z,2.09
2023-06-05T07:15:13.273Z,2.00
2023-06-05T07:16:13.290Z,2.02
2023-06-05T07:17:13.263Z,2.10
2023-06-05T07:18:13.238Z,1.96
2023-06-05T07:19:13.255Z,2.03
2023-06-05T07:20:13.266Z,1.99
2023-06-05T07:21:13.228Z,1.99
2023-06-05T07:22:13.215Z,1.99
2023-06-05T07:23:13.219Z,2.01
2023-06-05T07:24:13.365Z,2.04
2023-06-05T07:25:13.204Z,2.07
2023-06-05T07:26:13.203Z,2.12
2023-06-05T07:27:13.256Z,2.07
2023-06-05T07:28:13.182Z,2.01
2023-06-05T07:29:13.179Z,2.27
2023-06-05T07:30:13.152Z,2.63
2023-06-05T07:31:13.226Z,3.05
2023-06-05T07:32:13.251Z,3.68
2023-06-05T07:33:29.194Z,4.44
2023-06-05T07:34:14.313Z,4.44
2023-06-05T07:35:13.278Z,4.56
2023-06-05T07:36:13.257Z,4.90
2023-06-05T07:37:13.327Z,5.52
2023-06-05T07:38:13.250Z,7.00
2023-06-05T07:39:13.255Z,7.54
2023-06-05T07:40:13.243Z,8.11
2023-06-05T07:41:13.217Z,8.82
2023-06-05T07:42:14.472Z,9.09
2023-06-05T07:43:13.197Z,9.36
2023-06-05T07:44:13.230Z,9.92
2023-06-05T07:45:13.266Z,10.41
2023-06-05T07:46:13.356Z,9.05
2023-06-05T07:47:13.769Z,8.42
2023-06-05T07:48:13.372Z,8.66
2023-06-05T07:49:13.381Z,9.66
2023-06-05T07:50:13.431Z,10.66
2023-06-05T07:51:13.476Z,11.32
2023-06-05T07:52:13.762Z,9.76
2023-06-05T07:53:13.546Z,9.74
2023-06-05T07:54:13.578Z,10.30
2023-06-05T07:55:13.564Z,10.06
2023-06-05T07:56:13.607Z,10.43
2023-06-05T07:57:13.745Z,10.47
2023-06-05T07:58:13.662Z,10.12
2023-06-05T07:59:13.685Z,9.32
2023-06-05T08:00:13.717Z,8.44
2023-06-05T08:01:13.746Z,9.49
2023-06-05T08:02:14.295Z,9.36
2023-06-05T08:03:14.009Z,9.10
2023-06-05T08:04:14.159Z,9.44
2023-06-05T08:05:13.874Z,9.67
2023-06-05T08:06:13.888Z,9.09
2023-06-05T08:07:14.245Z,9.17
2023-06-05T08:08:13.913Z,8.60
2023-06-05T08:09:13.933Z,9.23
2023-06-05T08:10:13.950Z,9.64
2023-06-05T08:11:13.953Z,9.63
2023-06-05T08:12:13.957Z,10.02
2023-06-05T08:13:13.959Z,9.02
2023-06-05T08:14:13.966Z,9.32
2023-06-05T08:15:13.976Z,9.47
2023-06-05T08:16:13.979Z,10.02
2023-06-05T08:17:14.080Z,10.60
2023-06-05T08:18:13.968Z,11.11
2023-06-05T08:19:13.979Z,11.77
2023-06-05T08:20:13.955Z,12.66
2023-06-05T08:21:13.951Z,13.94
2023-06-05T08:22:14.249Z,15.23
2023-06-05T08:23:13.966Z,16.63
2023-06-05T08:24:13.965Z,18.64
2023-06-05T08:25:14.030Z,19.85
2023-06-05T08:26:14.042Z,20.68
2023-06-05T08:27:14.109Z,21.61
2023-06-05T08:28:14.140Z,22.45
2023-06-05T08:29:14.186Z,22.68
2023-06-05T08:30:14.232Z,21.83
2023-06-05T08:31:14.307Z,20.83
2023-06-05T08:32:14.368Z,20.46
2023-06-05T08:33:14.392Z,21.29
2023-06-05T08:34:14.458Z,23.32
2023-06-05T08:35:14.522Z,24.76
2023-06-05T08:36:14.616Z,25.89
2023-06-05T08:37:14.756Z,22.74
2023-06-05T08:38:14.716Z,22.75
2023-06-05T08:39:14.778Z,23.65
2023-06-05T08:40:14.832Z,24.58
2023-06-05T08:41:14.940Z,24.27
2023-06-05T08:42:15.254Z,24.55
2023-06-05T08:43:15.026Z,24.98
2023-06-05T08:44:15.084Z,24.77
2023-06-05T08:45:15.146Z,27.10
2023-06-05T08:46:15.254Z,25.94
2023-06-05T08:47:15.800Z,23.02
2023-06-05T08:48:15.363Z,21.87
2023-06-05T08:49:15.406Z,21.88
2023-06-05T08:50:15.474Z,20.98
2023-06-05T08:51:15.537Z,21.71
2023-06-05T08:52:15.586Z,21.32
2023-06-05T08:53:17.809Z,20.40
2023-06-05T08:54:15.640Z,19.57
2023-06-05T08:55:15.664Z,19.99
2023-06-05T08:56:15.619Z,19.34
2023-06-05T08:57:15.620Z,18.48
2023-06-05T08:58:15.629Z,18.40
2023-06-05T08:59:15.622Z,18.52
2023-06-05T09:00:15.591Z,18.71
2023-06-05T09:01:15.632Z,18.86
2023-06-05T09:02:15.768Z,18.79
2023-06-05T09:03:15.593Z,16.04
2023-06-05T09:04:15.576Z,16.93
2023-06-05T09:05:15.557Z,17.60
2023-06-05T09:06:15.584Z,16.83
2023-06-05T09:07:15.773Z,16.31
2023-06-05T09:08:15.550Z,15.58
2023-06-05T09:09:15.537Z,15.32
2023-06-05T09:10:15.542Z,15.93
2023-06-05T09:11:15.535Z,15.97
2023-06-05T09:12:15.782Z,15.37
2023-06-05T09:13:15.504Z,15.08
2023-06-05T09:14:15.505Z,15.13
2023-06-05T09:15:15.500Z,15.50
2023-06-05T09:16:15.522Z,10.80
2023-06-05T09:17:15.517Z,3.16
2023-06-05T09:18:15.522Z,2.82
2023-06-05T09:19:15.492Z,3.52
2023-06-05T09:20:15.482Z,5.23
2023-06-05T09:21:15.475Z,6.76
2023-06-05T09:22:15.814Z,7.34
2023-06-05T09:23:25.150Z,7.62
2023-06-05T09:24:16.555Z,7.65
2023-06-05T09:25:15.442Z,7.74
2023-06-05T09:26:15.424Z,7.94
2023-06-05T09:27:15.429Z,5.85
2023-06-05T09:28:15.436Z,1.83
2023-06-05T09:29:15.417Z,1.40
2023-06-05T09:30:15.412Z,1.23
2023-06-05T09:31:15.421Z,1.12
2023-06-05T09:32:15.802Z,1.25
2023-06-05T09:33:15.382Z,1.36
2023-06-05T09:34:15.389Z,2.58
2023-06-05T09:35:15.370Z,3.63
2023-06-05T09:36:15.403Z,4.40
2023-06-05T09:37:15.806Z,5.06
2023-06-05T09:38:15.424Z,5.19
2023-06-05T09:39:15.450Z,6.34
2023-06-05T09:40:15.430Z,7.26
2023-06-05T09:41:15.439Z,7.10
2023-06-05T09:42:15.804Z,6.76
2023-06-05T09:43:15.432Z,7.00
2023-06-05T09:44:15.466Z,6.91
2023-06-05T09:45:15.518Z,7.32
2023-06-05T09:46:15.612Z,7.72
2023-06-05T09:47:15.712Z,8.30
2023-06-05T09:48:15.750Z,9.26
2023-06-05T09:49:15.725Z,19.48
2023-06-05T09:50:15.837Z,15.73
2023-06-05T09:51:15.880Z,12.93
2023-06-05T09:52:15.920Z,12.32
2023-06-05T09:53:15.937Z,11.50
2023-06-05T09:54:15.983Z,11.08
2023-06-05T09:55:16.044Z,10.84
2023-06-05T09:56:16.105Z,11.32
2023-06-05T09:57:16.365Z,11.50
2023-06-05T09:58:16.185Z,11.43
2023-06-05T09:59:16.229Z,11.55
2023-06-05T10:00:17.199Z,11.61
2023-06-05T10:01:16.351Z,10.84
2023-06-05T10:02:16.337Z,10.69
2023-06-05T10:03:16.399Z,9.23
2023-06-05T10:04:16.476Z,8.17
2023-06-05T10:05:16.479Z,8.86
2023-06-05T10:06:19.955Z,7.34
2023-06-05T10:07:16.543Z,7.79
2023-06-05T10:08:16.534Z,7.88
2023-06-05T10:09:16.509Z,8.16
2023-06-05T10:10:16.538Z,8.54
2023-06-05T10:11:16.510Z,8.87
2023-06-05T10:12:16.502Z,7.74
2023-06-05T10:13:18.769Z,7.75
2023-06-05T10:14:16.487Z,7.77
2023-06-05T10:15:16.482Z,7.94
2023-06-05T10:16:25.576Z,8.17
2023-06-05T10:17:17.502Z,7.81
2023-06-05T10:18:16.478Z,7.98
2023-06-05T10:19:16.450Z,8.32
2023-06-05T10:20:17.405Z,8.82
2023-06-05T10:21:16.428Z,9.72
2023-06-05T10:22:16.848Z,5.65
2023-06-05T10:23:16.411Z,2.64
2023-06-05T10:24:16.445Z,1.67
2023-06-05T10:25:16.410Z,0.90
2023-06-05T10:26:16.386Z,0.97
2023-06-05T10:27:16.381Z,1.16
2023-06-05T10:28:16.375Z,1.53
2023-06-05T10:29:16.380Z,1.94
2023-06-05T10:30:16.482Z,2.25
2023-06-05T10:31:16.400Z,2.73
2023-06-05T10:32:16.401Z,3.12
2023-06-05T10:33:16.339Z,2.27
2023-06-05T10:34:16.348Z,1.95
2023-06-05T10:35:16.329Z,2.53
2023-06-05T10:36:16.317Z,2.97
2023-06-05T10:37:16.313Z,3.50
2023-06-05T10:38:16.303Z,3.93
2023-06-05T10:39:16.306Z,4.03
2023-06-05T10:40:16.311Z,4.27
2023-06-05T10:41:16.302Z,4.84
2023-06-05T10:42:16.284Z,5.14
2023-06-05T10:43:16.289Z,5.71
2023-06-05T10:44:16.284Z,6.25
2023-06-05T10:45:16.371Z,6.80
2023-06-05T10:46:16.536Z,7.30
2023-06-05T10:47:16.305Z,7.91
2023-06-05T10:48:16.262Z,8.40
2023-06-05T10:49:16.251Z,8.63
2023-06-05T10:50:16.246Z,8.52
2023-06-05T10:51:16.249Z,8.58
2023-06-05T10:52:16.219Z,8.37
2023-06-05T10:53:16.224Z,8.37
2023-06-05T10:54:16.219Z,8.39
2023-06-05T10:55:16.227Z,8.33
2023-06-05T10:56:16.204Z,8.35
2023-06-05T10:57:16.333Z,8.26
2023-06-05T10:58:16.508Z,8.13
2023-06-05T10:59:16.176Z,8.43
2023-06-05T11:00:16.176Z,7.57
2023-06-05T11:01:16.185Z,7.74
2023-06-05T11:02:16.344Z,7.95
2023-06-05T11:03:16.183Z,7.95
2023-06-05T11:04:16.181Z,8.20
2023-06-05T11:05:16.191Z,8.53
2023-06-05T11:06:16.125Z,8.63
2023-06-05T11:07:16.333Z,8.51
2023-06-05T11:08:16.146Z,8.69
2023-06-05T11:09:16.097Z,7.52
2023-06-05T11:10:16.108Z,8.18
2023-06-05T11:11:16.140Z,8.15
2023-06-05T11:12:16.199Z,6.90
2023-06-05T11:13:16.207Z,6.45
2023-06-05T11:14:16.234Z,6.27
2023-06-05T11:15:16.464Z,6.53
2023-06-05T11:16:16.378Z,6.62
2023-06-05T11:17:17.622Z,6.38
2023-06-05T11:18:16.427Z,5.61
2023-06-05T11:19:16.457Z,4.11
2023-06-05T11:20:16.544Z,3.31
2023-06-05T11:21:16.567Z,2.55
2023-06-05T11:22:16.832Z,2.21
2023-06-05T11:23:16.672Z,2.24
2023-06-05T11:24:16.736Z,1.90
2023-06-05T11:25:16.860Z,1.52
2023-06-05T11:26:16.851Z,1.64
2023-06-05T11:27:16.841Z,1.60
2023-06-05T11:28:16.837Z,1.53
2023-06-05T11:29:16.926Z,1.19
2023-06-05T11:30:19.723Z,1.16
2023-06-05T11:31:17.869Z,1.03
2023-06-05T11:32:16.868Z,1.07
2023-06-05T11:33:17.179Z,1.10
2023-06-05T11:34:16.817Z,0.96
2023-06-05T11:35:16.809Z,0.99
2023-06-05T11:36:16.810Z,0.75
2023-06-05T11:37:16.786Z,0.68
2023-06-05T11:38:17.811Z,0.70
2023-06-05T11:39:16.773Z,0.69
2023-06-05T11:40:16.789Z,0.61
2023-06-05T11:41:16.765Z,0.54
2023-06-05T11:42:16.743Z,0.54
2023-06-05T11:43:16.758Z,0.52
2023-06-05T11:44:16.728Z,0.52
2023-06-05T11:45:16.734Z,0.52
2023-06-05T11:46:16.785Z,0.64
2023-06-05T11:47:16.761Z,0.55
2023-06-05T11:48:16.721Z,0.52
2023-06-05T11:49:16.690Z,0.51
2023-06-05T11:50:16.699Z,0.50
2023-06-05T11:51:16.686Z,0.52
2023-06-05T11:52:16.677Z,0.54
2023-06-05T11:53:16.666Z,0.61
2023-06-05T11:54:16.655Z,0.63
2023-06-05T11:55:16.732Z,0.65
2023-06-05T11:56:16.716Z,0.64
2023-06-05T11:57:16.648Z,0.71
2023-06-05T11:58:16.635Z,0.72
2023-06-05T11:59:16.639Z,0.63
2023-06-05T12:00:16.648Z,0.65
2023-06-05T12:01:16.622Z,0.60
2023-06-05T12:02:16.680Z,0.72
2023-06-05T12:03:16.880Z,0.70
2023-06-05T12:04:17.597Z,0.72
2023-06-05T12:05:16.602Z,0.81
2023-06-05T12:06:16.594Z,1.05
2023-06-05T12:07:16.596Z,1.38
2023-06-05T12:08:16.562Z,1.69
2023-06-05T12:09:16.548Z,2.09
2023-06-05T12:10:16.574Z,2.32
2023-06-05T12:11:16.533Z,3.38
2023-06-05T12:12:16.538Z,3.96
2023-06-05T12:13:16.891Z,4.73
2023-06-05T12:14:16.530Z,5.55
2023-06-05T12:15:16.534Z,6.00
2023-06-05T12:16:16.576Z,6.30
2023-06-05T12:17:16.519Z,4.91
2023-06-05T12:18:16.506Z,4.29
2023-06-05T12:19:16.836Z,4.19
2023-06-05T12:20:16.487Z,3.92
2023-06-05T12:21:16.480Z,4.28
2023-06-05T12:22:16.474Z,4.41
2023-06-05T12:23:16.483Z,4.65
2023-06-05T12:24:16.482Z,5.01
2023-06-05T12:25:21.089Z,4.65
2023-06-05T12:26:17.431Z,4.67
2023-06-05T12:27:16.437Z,4.80
2023-06-05T12:28:16.420Z,4.93
2023-06-05T12:29:16.427Z,5.31
2023-06-05T12:30:16.404Z,4.38
2023-06-05T12:31:16.458Z,2.59
2023-06-05T12:32:16.391Z,2.09
2023-06-05T12:33:16.409Z,2.40
2023-06-05T12:34:16.373Z,2.29
2023-06-05T12:35:16.389Z,2.31
2023-06-05T12:36:16.365Z,2.96
2023-06-05T12:37:16.390Z,3.36
2023-06-05T12:38:16.347Z,3.68
2023-06-05T12:39:16.378Z,3.90
2023-06-05T12:40:28.325Z,3.16
2023-06-05T12:41:17.490Z,3.17
2023-06-05T12:42:16.418Z,3.25
2023-06-05T12:43:16.421Z,3.45
2023-06-05T12:44:16.420Z,3.75
2023-06-05T12:45:16.429Z,4.03
2023-06-05T12:46:16.513Z,4.25
2023-06-05T12:47:16.425Z,4.54
2023-06-05T12:48:16.404Z,3.82
2023-06-05T12:49:16.374Z,3.84
2023-06-05T12:50:16.430Z,4.30
2023-06-05T12:51:16.502Z,3.93
2023-06-05T12:52:16.561Z,3.09
2023-06-05T12:53:16.624Z,2.58
2023-06-05T12:54:16.707Z,2.46
2023-06-05T12:55:16.766Z,2.57
2023-06-05T12:56:16.798Z,3.00
2023-06-05T12:57:16.880Z,3.57
2023-06-05T12:58:16.928Z,4.00
2023-06-05T12:59:16.986Z,4.25
2023-06-05T13:00:17.056Z,4.87
2023-06-05T13:01:17.124Z,5.48
2023-06-05T13:02:17.153Z,5.73
2023-06-05T13:03:17.439Z,5.87
2023-06-05T13:04:17.234Z,5.82
2023-06-05T13:05:17.336Z,6.12
2023-06-05T13:06:17.361Z,6.04
2023-06-05T13:07:17.425Z,6.21
2023-06-05T13:08:17.901Z,6.37
2023-06-05T13:09:17.529Z,6.48
2023-06-05T13:10:17.567Z,6.34
2023-06-05T13:11:17.629Z,6.58
2023-06-05T13:12:17.684Z,6.67
2023-06-05T13:13:17.758Z,6.83
2023-06-05T13:14:17.807Z,6.84
2023-06-05T13:15:17.860Z,7.00
2023-06-05T13:16:17.964Z,7.19